Time;durP1;ratioP1;P1;durP2;ratioP2;P2;SDS_P1;SDS_P2;PMS_P1;PMS_P2;Temp;Humidity;BMP_temperature;BMP_pressure;BME280_temperature;BME280_humidity;BME280_pressure;Samples;Min_cycle;Max_cycle;Signal;HPM_P1;HPM_P2
2023/03/21 00:01:57;;;;;;;8.10;5.50;;;;;;;;;;5092815;28;20210;-85
2023/03/21 00:04:27;;;;;;;5.17;3.03;;;;;;;;;;5093153;28;20211;-84
2023/03/21 00:07:11;;;;;;;11.17;5.27;;;;;;;;;;5092655;28;20220;-85
2023/03/21 00:09:41;;;;;;;3.20;2.53;;;;;;;;;;5093143;28;20203;-85
2023/03/21 00:12:10;;;;;;;8.97;6.73;;;;;;;;;;5092705;28;20202;-85
2023/03/21 00:14:39;;;;;;;10.57;7.63;;;;;;;;;;5092940;28;20224;-84
2023/03/21 00:17:09;;;;;;;10.87;6.70;;;;;;;;;;5092547;28;20238;-84
2023/03/21 00:19:40;;;;;;;10.53;6.47;;;;;;;;;;5092972;28;20299;-84
2023/03/21 00:22:08;;;;;;;11.97;5.73;;;;;;;;;;5092457;28;20204;-84
2023/03/21 00:24:38;;;;;;;17.10;10.30;;;;;;;;;;5092741;28;20296;-85
2023/03/21 00:27:07;;;;;;;8.40;5.47;;;;;;;;;;5092695;28;20229;-85
2023/03/21 00:29:56;;;;;;;5.97;2.63;;;;;;;;;;5092267;28;20337;-85
2023/03/21 00:32:24;;;;;;;18.67;8.87;;;;;;;;;;5092573;28;20248;-85
2023/03/21 00:34:53;;;;;;;9.40;3.60;;;;;;;;;;5092801;28;20263;-85
2023/03/21 00:37:41;;;;;;;6.67;4.23;;;;;;;;;;5092447;28;20203;-85
2023/03/21 00:40:11;;;;;;;17.43;7.17;;;;;;;;;;5092758;28;20262;-85
2023/03/21 00:42:54;;;;;;;14.87;8.47;;;;;;;;;;5092548;28;20276;-85
2023/03/21 00:45:22;;;;;;;20.10;8.77;;;;;;;;;;5092309;28;20210;-85
2023/03/21 00:47:51;;;;;;;10.97;6.13;;;;;;;;;;5092059;28;20216;-85
2023/03/21 00:50:19;;;;;;;4.90;3.77;;;;;;;;;;5092298;28;20198;-85
2023/03/21 00:52:48;;;;;;;11.53;5.53;;;;;;;;;;5092380;28;20310;-84
2023/03/21 00:55:17;;;;;;;17.77;8.23;;;;;;;;;;5092197;28;20191;-85
2023/03/21 00:57:46;;;;;;;22.63;14.23;;;;;;;;;;5092422;28;20285;-85
2023/03/21 01:00:24;;;;;;;6.50;4.30;;;;;;;;;;5092285;28;20199;-84
2023/03/21 01:02:56;;;;;;;7.30;4.97;;;;;;;;;;5092105;28;20292;-85
2023/03/21 01:08:21;;;;;;;17.43;7.17;;;;;;;;;;5092911;28;20231;-85
2023/03/21 01:11:01;;;;;;;6.83;4.00;;;;;;;;;;5096164;28;20209;-84
2023/03/21 01:13:30;;;;;;;11.63;7.03;;;;;;;;;;5096227;28;20271;-83
2023/03/21 01:16:04;;;;;;;7.77;5.07;;;;;;;;;;5096148;28;20203;-82
2023/03/21 01:18:34;;;;;;;12.13;7.17;;;;;;;;;;5096368;28;20230;-82
2023/03/21 01:21:02;;;;;;;8.57;6.53;;;;;;;;;;5096193;28;20239;-82
2023/03/21 01:23:31;;;;;;;14.40;10.47;;;;;;;;;;5096460;28;20213;-82
2023/03/21 01:25:59;;;;;;;13.93;8.07;;;;;;;;;;5096231;28;20221;-82
2023/03/21 01:28:28;;;;;;;5.70;3.77;;;;;;;;;;5096199;28;20234;-83
2023/03/21 01:30:57;;;;;;;14.77;9.63;;;;;;;;;;5096119;28;20247;-82
2023/03/21 01:33:27;;;;;;;7.80;5.43;;;;;;;;;;5095855;28;20257;-82
2023/03/21 01:35:55;;;;;;;7.60;6.40;;;;;;;;;;5095702;28;20293;-83
2023/03/21 01:38:39;;;;;;;4.53;3.97;;;;;;;;;;5095741;28;20208;-83
2023/03/21 01:41:08;;;;;;;7.97;5.63;;;;;;;;;;5095908;28;20200;-83
2023/03/21 01:43:47;;;;;;;8.67;5.90;;;;;;;;;;5095948;28;20208;-82
2023/03/21 01:46:43;;;;;;;21.30;8.90;;;;;;;;;;5095981;28;20256;-82
2023/03/21 01:49:27;;;;;;;7.20;5.80;;;;;;;;;;5084188;28;20197;-82
2023/03/21 01:51:57;;;;;;;7.00;5.10;;;;;;;;;;5095548;28;20202;-82
2023/03/21 01:54:38;;;;;;;9.17;7.13;;;;;;;;;;5095906;28;20211;-82
2023/03/21 01:57:08;;;;;;;7.07;4.60;;;;;;;;;;5095397;28;20189;-82
2023/03/21 01:59:38;;;;;;;4.30;3.90;;;;;;;;;;5095610;28;20202;-82
2023/03/21 02:02:09;;;;;;;8.10;4.57;;;;;;;;;;5095170;28;20203;-85
2023/03/21 02:04:39;;;;;;;12.13;7.63;;;;;;;;;;5095340;28;20197;-83
2023/03/21 02:07:08;;;;;;;4.57;2.73;;;;;;;;;;5095030;28;20259;-83
2023/03/21 02:09:39;;;;;;;8.33;5.13;;;;;;;;;;5095239;28;20234;-83
2023/03/21 02:12:09;;;;;;;11.00;6.63;;;;;;;;;;5095182;28;20233;-85
2023/03/21 02:14:38;;;;;;;7.63;4.03;;;;;;;;;;5095184;28;20234;-85
2023/03/21 02:17:11;;;;;;;11.73;6.50;;;;;;;;;;5094801;28;20228;-85
2023/03/21 02:20:10;;;;;;;10.53;6.57;;;;;;;;;;5094560;28;20193;-85
2023/03/21 02:22:48;;;;;;;11.03;4.47;;;;;;;;;;5012855;28;20208;-85
2023/03/21 02:25:40;;;;;;;7.70;4.53;;;;;;;;;;5082137;28;20206;-85
2023/03/21 02:28:11;;;;;;;13.67;6.33;;;;;;;;;;5095061;28;20294;-85
2023/03/21 02:30:49;;;;;;;29.80;15.00;;;;;;;;;;5094747;28;20231;-85
2023/03/21 02:33:36;;;;;;;7.80;3.43;;;;;;;;;;5094775;28;20195;-85
2023/03/21 02:36:15;;;;;;;10.30;5.37;;;;;;;;;;5094832;28;20202;-85
2023/03/21 02:38:48;;;;;;;20.53;8.87;;;;;;;;;;5094941;28;20208;-85
2023/03/21 02:41:18;;;;;;;10.20;6.10;;;;;;;;;;5094633;28;20201;-85
2023/03/21 02:43:50;;;;;;;13.07;8.00;;;;;;;;;;5094723;28;20195;-85
2023/03/21 02:46:21;;;;;;;7.43;4.50;;;;;;;;;;5094637;28;20223;-85
2023/03/21 02:48:55;;;;;;;7.83;4.97;;;;;;;;;;5094768;28;20380;-84
2023/03/21 02:51:26;;;;;;;11.10;8.03;;;;;;;;;;5094385;28;20252;-85
2023/03/21 02:53:58;;;;;;;10.23;6.30;;;;;;;;;;5094549;28;20238;-85
2023/03/21 02:56:47;;;;;;;19.27;10.67;;;;;;;;;;5093946;28;20199;-85
2023/03/21 02:59:17;;;;;;;21.60;13.77;;;;;;;;;;5093998;28;20191;-85
2023/03/21 03:01:45;;;;;;;6.60;4.97;;;;;;;;;;5094115;28;20273;-85
2023/03/21 03:04:21;;;;;;;22.70;12.83;;;;;;;;;;5094170;28;20287;-85
2023/03/21 03:07:01;;;;;;;9.27;4.53;;;;;;;;;;5093937;28;20234;-85
2023/03/21 03:09:37;;;;;;;23.60;13.07;;;;;;;;;;5093872;28;20204;-85
2023/03/21 03:12:07;;;;;;;12.77;7.43;;;;;;;;;;5094151;28;20255;-85
2023/03/21 03:14:43;;;;;;;20.07;12.23;;;;;;;;;;5093345;28;20400;-85
2023/03/21 03:17:40;;;;;;;9.37;7.60;;;;;;;;;;5093914;28;20230;-85
2023/03/21 03:20:19;;;;;;;16.60;11.07;;;;;;;;;;5094244;28;20225;-85
2023/03/21 03:22:53;;;;;;;14.33;9.20;;;;;;;;;;5093769;28;20251;-85
2023/03/21 03:25:24;;;;;;;9.10;7.43;;;;;;;;;;5093491;28;20233;-85
2023/03/21 03:28:10;;;;;;;10.63;6.63;;;;;;;;;;5093144;28;20288;-85
2023/03/21 03:30:38;;;;;;;4.80;3.87;;;;;;;;;;5093385;28;20200;-85
2023/03/21 03:33:22;;;;;;;16.90;11.00;;;;;;;;;;5093565;28;20247;-85
2023/03/21 03:35:51;;;;;;;12.53;6.97;;;;;;;;;;5092903;28;20222;-85
2023/03/21 03:38:34;;;;;;;3.80;3.40;;;;;;;;;;5093812;28;20224;-85
2023/03/21 03:41:08;;;;;;;6.73;4.83;;;;;;;;;;5093664;28;20204;-84
2023/03/21 03:43:40;;;;;;;8.67;5.67;;;;;;;;;;5093261;28;20211;-84
2023/03/21 03:46:11;;;;;;;13.00;8.97;;;;;;;;;;5093409;28;20209;-85
2023/03/21 03:48:45;;;;;;;11.93;9.73;;;;;;;;;;5093118;28;20195;-85
2023/03/21 03:51:16;;;;;;;16.93;8.63;;;;;;;;;;5093028;28;20199;-85
2023/03/21 03:53:46;;;;;;;19.40;13.00;;;;;;;;;;5093023;28;20201;-85
2023/03/21 03:56:16;;;;;;;13.20;8.23;;;;;;;;;;5093269;28;20231;-85
2023/03/21 03:58:45;;;;;;;8.10;5.77;;;;;;;;;;5093243;28;20233;-85
2023/03/21 04:01:13;;;;;;;15.87;10.13;;;;;;;;;;5093586;28;20286;-85
2023/03/21 04:03:43;;;;;;;23.90;17.70;;;;;;;;;;5092856;28;20255;-85
2023/03/21 04:06:20;;;;;;;7.93;5.73;;;;;;;;;;5092949;28;20217;-85
2023/03/21 04:08:49;;;;;;;15.03;12.37;;;;;;;;;;5092954;28;20203;-85
2023/03/21 04:11:20;;;;;;;22.37;16.70;;;;;;;;;;5092919;28;20462;-85
2023/03/21 04:13:48;;;;;;;14.67;11.70;;;;;;;;;;5092511;28;20239;-85
2023/03/21 04:16:18;;;;;;;8.83;6.87;;;;;;;;;;5092519;28;20259;-85
2023/03/21 04:18:46;;;;;;;13.50;10.33;;;;;;;;;;5092246;28;20188;-85
2023/03/21 04:21:14;;;;;;;14.57;7.50;;;;;;;;;;5092980;28;20230;-85
2023/03/21 04:23:43;;;;;;;23.23;17.13;;;;;;;;;;5092658;28;20198;-85
2023/03/21 04:26:11;;;;;;;18.27;11.90;;;;;;;;;;5092339;28;20202;-85
2023/03/21 04:28:41;;;;;;;20.80;16.27;;;;;;;;;;5092073;28;20214;-84
2023/03/21 04:31:10;;;;;;;7.27;5.97;;;;;;;;;;5092630;28;20197;-85
2023/03/21 04:33:52;;;;;;;14.03;11.17;;;;;;;;;;5092428;28;20267;-85
2023/03/21 04:36:26;;;;;;;15.70;12.00;;;;;;;;;;5092507;28;20203;-85
2023/03/21 04:38:56;;;;;;;21.77;17.80;;;;;;;;;;5092556;28;20209;-85
2023/03/21 04:41:24;;;;;;;18.10;13.73;;;;;;;;;;5092250;28;20202;-85
2023/03/21 04:43:54;;;;;;;15.07;9.60;;;;;;;;;;5091554;28;20196;-85
2023/03/21 04:46:23;;;;;;;12.73;8.30;;;;;;;;;;5092404;28;20244;-84
2023/03/21 04:48:51;;;;;;;7.57;5.13;;;;;;;;;;5091899;28;20253;-85
2023/03/21 04:51:20;;;;;;;17.30;11.60;;;;;;;;;;5092453;28;20235;-85
2023/03/21 04:53:48;;;;;;;17.70;13.27;;;;;;;;;;5092467;28;20207;-85
2023/03/21 04:56:16;;;;;;;14.63;9.50;;;;;;;;;;5092094;28;20196;-84
2023/03/21 04:58:45;;;;;;;16.10;10.63;;;;;;;;;;5092541;28;20206;-85
2023/03/21 05:01:18;;;;;;;13.47;8.37;;;;;;;;;;5091912;28;20220;-85
2023/03/21 05:03:47;;;;;;;4.73;3.70;;;;;;;;;;5092022;28;20191;-85
2023/03/21 05:06:16;;;;;;;12.97;6.60;;;;;;;;;;5091717;28;20253;-85
2023/03/21 05:08:44;;;;;;;10.83;8.33;;;;;;;;;;5091506;28;20242;-85
2023/03/21 05:11:13;;;;;;;10.90;6.57;;;;;;;;;;5092012;28;20231;-85
2023/03/21 05:13:41;;;;;;;9.50;5.20;;;;;;;;;;5091724;28;20254;-85
2023/03/21 05:16:10;;;;;;;8.50;5.57;;;;;;;;;;5091660;28;20229;-85
2023/03/21 05:18:39;;;;;;;9.60;5.53;;;;;;;;;;5092052;28;20209;-85
2023/03/21 05:21:09;;;;;;;15.60;11.87;;;;;;;;;;5091595;28;20205;-85
2023/03/21 05:23:40;;;;;;;12.60;11.33;;;;;;;;;;5091889;28;20207;-85
2023/03/21 05:26:10;;;;;;;14.57;7.93;;;;;;;;;;5091835;28;20203;-85
2023/03/21 05:28:38;;;;;;;13.30;7.53;;;;;;;;;;5091657;28;20223;-85
2023/03/21 05:31:07;;;;;;;5.60;5.07;;;;;;;;;;5091863;28;20209;-85
2023/03/21 05:33:36;;;;;;;16.93;10.00;;;;;;;;;;5091975;28;20211;-85
2023/03/21 05:36:06;;;;;;;13.37;6.97;;;;;;;;;;5091653;28;20204;-85
2023/03/21 05:38:34;;;;;;;18.37;13.80;;;;;;;;;;5091944;28;20207;-85
2023/03/21 05:41:03;;;;;;;21.43;16.67;;;;;;;;;;5091603;28;20223;-84
2023/03/21 05:43:31;;;;;;;11.03;7.93;;;;;;;;;;5091536;28;20226;-85
2023/03/21 05:45:59;;;;;;;10.07;6.87;;;;;;;;;;5091882;28;20203;-85
2023/03/21 05:48:28;;;;;;;17.50;14.23;;;;;;;;;;5091377;28;20222;-85
2023/03/21 05:50:56;;;;;;;7.27;5.50;;;;;;;;;;5091695;28;20235;-85
2023/03/21 05:53:26;;;;;;;7.13;4.60;;;;;;;;;;5091467;28;20208;-85
2023/03/21 05:55:54;;;;;;;13.00;10.30;;;;;;;;;;5094571;28;20207;-85
2023/03/21 05:58:23;;;;;;;5.57;3.70;;;;;;;;;;5095205;28;20196;-85
2023/03/21 06:00:51;;;;;;;17.57;13.60;;;;;;;;;;5095427;28;20203;-85
2023/03/21 06:03:20;;;;;;;8.37;5.23;;;;;;;;;;5095311;28;20238;-85
2023/03/21 06:05:48;;;;;;;19.77;9.60;;;;;;;;;;5095007;28;20261;-85
2023/03/21 06:08:16;;;;;;;8.47;7.40;;;;;;;;;;5094989;28;20328;-84
2023/03/21 06:10:46;;;;;;;12.17;8.13;;;;;;;;;;5094994;28;20232;-85
2023/03/21 06:13:15;;;;;;;12.60;8.70;;;;;;;;;;5094821;28;20203;-84
2023/03/21 06:15:44;;;;;;;9.20;5.10;;;;;;;;;;5094731;28;20238;-85
2023/03/21 06:18:12;;;;;;;6.40;4.83;;;;;;;;;;5095109;28;20213;-85
2023/03/21 06:20:41;;;;;;;12.97;7.60;;;;;;;;;;5094763;28;20290;-85
2023/03/21 06:23:09;;;;;;;24.77;15.63;;;;;;;;;;5094842;28;20260;-85
2023/03/21 06:25:38;;;;;;;17.80;10.10;;;;;;;;;;5094850;28;20199;-85
2023/03/21 06:28:08;;;;;;;16.53;13.27;;;;;;;;;;5094482;28;20227;-85
2023/03/21 06:30:37;;;;;;;21.07;15.00;;;;;;;;;;5094690;28;20230;-85
2023/03/21 06:33:05;;;;;;;19.90;13.67;;;;;;;;;;5094701;28;20213;-85
2023/03/21 06:35:34;;;;;;;20.97;15.83;;;;;;;;;;5094729;28;20240;-85
2023/03/21 06:38:03;;;;;;;24.50;19.33;;;;;;;;;;5094695;28;20195;-85
2023/03/21 06:40:31;;;;;;;20.60;16.30;;;;;;;;;;5094424;28;20207;-85
2023/03/21 06:43:00;;;;;;;23.40;16.13;;;;;;;;;;5094331;28;20199;-85
2023/03/21 06:45:30;;;;;;;21.07;13.17;;;;;;;;;;5094577;28;20204;-85
2023/03/21 06:47:58;;;;;;;30.03;24.47;;;;;;;;;;5094077;28;20218;-85
2023/03/21 06:50:27;;;;;;;28.90;23.27;;;;;;;;;;5094582;28;20213;-86
2023/03/21 06:52:56;;;;;;;26.30;20.10;;;;;;;;;;5094306;28;20382;-85
2023/03/21 06:55:25;;;;;;;30.93;23.97;;;;;;;;;;5093930;28;20268;-85
2023/03/21 06:57:54;;;;;;;28.70;20.37;;;;;;;;;;5094286;28;20202;-86
2023/03/21 07:00:23;;;;;;;29.10;20.17;;;;;;;;;;5094173;28;20205;-86
2023/03/21 07:02:53;;;;;;;34.60;25.47;;;;;;;;;;5093996;28;20203;-85
2023/03/21 07:05:22;;;;;;;27.17;18.13;;;;;;;;;;5093649;28;20304;-85
2023/03/21 07:07:50;;;;;;;17.67;11.17;;;;;;;;;;5093636;28;20230;-85
2023/03/21 07:10:19;;;;;;;29.33;19.23;;;;;;;;;;5093752;28;20317;-85
2023/03/21 07:12:48;;;;;;;27.23;14.57;;;;;;;;;;5094202;28;20207;-85
2023/03/21 07:15:16;;;;;;;26.60;21.23;;;;;;;;;;5093651;28;20255;-84
2023/03/21 07:17:44;;;;;;;33.47;24.13;;;;;;;;;;5093836;28;20207;-87
2023/03/21 07:20:14;;;;;;;42.57;27.67;;;;;;;;;;5093925;28;20226;-87
2023/03/21 07:22:43;;;;;;;22.93;14.53;;;;;;;;;;5093559;28;20204;-86
2023/03/21 07:25:11;;;;;;;20.23;12.67;;;;;;;;;;5093673;28;20203;-87
2023/03/21 07:27:41;;;;;;;42.87;31.37;;;;;;;;;;5093646;28;20229;-87
2023/03/21 07:30:10;;;;;;;35.30;25.73;;;;;;;;;;5093669;28;20226;-87
2023/03/21 07:32:39;;;;;;;33.30;23.50;;;;;;;;;;5093782;28;20211;-86
2023/03/21 07:35:08;;;;;;;36.53;26.07;;;;;;;;;;5094292;28;20238;-87
2023/03/21 07:37:38;;;;;;;40.40;25.33;;;;;;;;;;5093610;28;20207;-85
2023/03/21 07:40:09;;;;;;;34.73;24.57;;;;;;;;;;5093560;28;20191;-87
2023/03/21 07:42:38;;;;;;;38.63;25.10;;;;;;;;;;5093629;28;20243;-87
2023/03/21 07:45:07;;;;;;;32.50;23.50;;;;;;;;;;5093413;28;20203;-86
2023/03/21 07:47:36;;;;;;;27.40;16.70;;;;;;;;;;5093555;28;20273;-87
2023/03/21 07:50:05;;;;;;;40.23;25.87;;;;;;;;;;5093355;28;20215;-86
2023/03/21 07:52:33;;;;;;;36.77;19.77;;;;;;;;;;5093306;28;20202;-86
2023/03/21 07:55:03;;;;;;;37.47;24.13;;;;;;;;;;5093232;28;20231;-86
2023/03/21 07:57:32;;;;;;;35.50;23.47;;;;;;;;;;5093555;28;20201;-86
2023/03/21 08:00:02;;;;;;;37.00;25.93;;;;;;;;;;5093554;28;20250;-85
2023/03/21 08:02:37;;;;;;;21.10;13.47;;;;;;;;;;5089002;28;20212;-86
2023/03/21 08:05:06;;;;;;;22.63;14.03;;;;;;;;;;5088184;28;20235;-86
2023/03/21 08:07:34;;;;;;;24.97;16.47;;;;;;;;;;5073663;28;20219;-86
2023/03/21 08:10:05;;;;;;;31.67;20.57;;;;;;;;;;5086823;28;20237;-87
2023/03/21 08:12:33;;;;;;;32.83;22.83;;;;;;;;;;5094823;28;20203;-86
2023/03/21 08:15:02;;;;;;;32.17;20.83;;;;;;;;;;5090518;28;20298;-86
2023/03/21 08:17:30;;;;;;;27.47;22.33;;;;;;;;;;5094871;28;20218;-85
2023/03/21 08:19:59;;;;;;;29.10;19.27;;;;;;;;;;5091204;28;20287;-87
2023/03/21 08:22:28;;;;;;;27.40;24.33;;;;;;;;;;5090147;28;20215;-87
2023/03/21 08:24:56;;;;;;;16.43;10.63;;;;;;;;;;5100475;28;20216;-87
2023/03/21 08:27:26;;;;;;;25.57;15.67;;;;;;;;;;5094938;28;20202;-87
2023/03/21 08:29:55;;;;;;;25.13;17.13;;;;;;;;;;5091932;28;20234;-87
2023/03/21 08:32:28;;;;;;;15.30;10.90;;;;;;;;;;5092277;28;20299;-87
2023/03/21 08:34:56;;;;;;;25.87;13.63;;;;;;;;;;5092514;28;20385;-87
2023/03/21 08:37:25;;;;;;;19.77;16.37;;;;;;;;;;5095168;28;20246;-88
2023/03/21 08:39:54;;;;;;;18.07;14.67;;;;;;;;;;5093256;28;20203;-89
2023/03/21 08:42:27;;;;;;;19.30;15.63;;;;;;;;;;5091634;28;20211;-87
2023/03/21 08:44:56;;;;;;;22.67;17.43;;;;;;;;;;5097874;28;20199;-89
2023/03/21 08:47:25;;;;;;;20.00;17.90;;;;;;;;;;5087290;28;20207;-87
2023/03/21 08:49:53;;;;;;;17.73;13.57;;;;;;;;;;5089991;28;20212;-87
2023/03/21 08:52:23;;;;;;;18.60;14.93;;;;;;;;;;5092811;28;20210;-87
2023/03/21 08:54:52;;;;;;;20.30;15.00;;;;;;;;;;5092579;28;20230;-86
2023/03/21 08:57:20;;;;;;;15.07;11.30;;;;;;;;;;5082508;28;20214;-86
2023/03/21 08:59:51;;;;;;;22.67;16.67;;;;;;;;;;5086188;28;20207;-84
2023/03/21 09:02:19;;;;;;;16.10;12.00;;;;;;;;;;5089505;28;20212;-87
2023/03/21 09:04:51;;;;;;;18.63;13.33;;;;;;;;;;5091253;28;20233;-87
2023/03/21 09:07:20;;;;;;;19.67;11.87;;;;;;;;;;5071386;28;20200;-87
2023/03/21 09:09:51;;;;;;;14.17;11.67;;;;;;;;;;5085857;28;20255;-86
2023/03/21 09:12:40;;;;;;;16.03;12.60;;;;;;;;;;5091598;28;20203;-86
2023/03/21 09:15:11;;;;;;;15.80;11.77;;;;;;;;;;5094069;28;20233;-86
2023/03/21 09:17:41;;;;;;;16.50;11.17;;;;;;;;;;5090829;28;20208;-86
2023/03/21 09:20:17;;;;;;;17.53;13.43;;;;;;;;;;5071975;28;20208;-87
2023/03/21 09:22:46;;;;;;;19.63;16.50;;;;;;;;;;5085272;28;20207;-87
2023/03/21 09:25:15;;;;;;;13.17;9.97;;;;;;;;;;5090331;28;20214;-85
2023/03/21 09:27:44;;;;;;;15.37;10.63;;;;;;;;;;5085655;28;20255;-87
2023/03/21 09:30:15;;;;;;;14.20;8.70;;;;;;;;;;5092226;28;20250;-86
2023/03/21 09:32:47;;;;;;;13.73;9.27;;;;;;;;;;5094880;28;20226;-86
2023/03/21 09:35:17;;;;;;;15.10;10.43;;;;;;;;;;5088449;28;20205;-86
2023/03/21 09:37:47;;;;;;;9.53;8.43;;;;;;;;;;5078458;28;20206;-85
2023/03/21 09:40:18;;;;;;;14.33;10.90;;;;;;;;;;5080983;28;20226;-85
2023/03/21 09:42:51;;;;;;;14.97;11.53;;;;;;;;;;5092800;28;20272;-86
2023/03/21 09:45:25;;;;;;;15.87;8.90;;;;;;;;;;5095876;28;20237;-86
2023/03/21 09:47:55;;;;;;;13.97;12.27;;;;;;;;;;5095630;28;20242;-86
2023/03/21 09:50:26;;;;;;;13.23;11.67;;;;;;;;;;5092462;28;20228;-87
2023/03/21 09:52:57;;;;;;;14.90;9.07;;;;;;;;;;5080360;28;20206;-85
2023/03/21 09:55:29;;;;;;;11.73;9.33;;;;;;;;;;5078675;28;20204;-85
2023/03/21 09:58:03;;;;;;;4.73;3.53;;;;;;;;;;5095063;28;20197;-88
2023/03/21 10:00:36;;;;;;;7.13;5.27;;;;;;;;;;5091367;28;20209;-86
2023/03/21 10:03:08;;;;;;;12.00;8.20;;;;;;;;;;5095138;28;20204;-86
2023/03/21 10:05:43;;;;;;;14.60;11.47;;;;;;;;;;5095818;28;20220;-86
2023/03/21 10:08:15;;;;;;;11.00;8.80;;;;;;;;;;5090699;28;20303;-86
2023/03/21 10:10:46;;;;;;;12.70;10.37;;;;;;;;;;5093944;28;20244;-86
2023/03/21 10:13:15;;;;;;;10.37;8.30;;;;;;;;;;5094521;28;20240;-87
2023/03/21 10:15:45;;;;;;;15.03;10.23;;;;;;;;;;5093881;28;20300;-86
2023/03/21 10:18:16;;;;;;;18.53;7.87;;;;;;;;;;5094925;28;20235;-85
2023/03/21 10:20:45;;;;;;;14.27;10.67;;;;;;;;;;5093700;28;20235;-86
2023/03/21 10:23:15;;;;;;;10.00;8.37;;;;;;;;;;5093712;28;20209;-86
2023/03/21 10:25:44;;;;;;;18.33;9.60;;;;;;;;;;5088169;28;20223;-86
2023/03/21 10:28:19;;;;;;;10.77;9.67;;;;;;;;;;5077871;28;20215;-85
2023/03/21 10:30:53;;;;;;;12.67;10.23;;;;;;;;;;5085489;28;20215;-85
2023/03/21 10:33:24;;;;;;;12.60;11.30;;;;;;;;;;5087388;28;20292;-86
2023/03/21 10:35:55;;;;;;;13.83;11.97;;;;;;;;;;5088781;28;20227;-85
2023/03/21 10:38:25;;;;;;;15.43;11.50;;;;;;;;;;5092672;28;20212;-85
2023/03/21 10:40:54;;;;;;;14.20;11.67;;;;;;;;;;5083891;28;20205;-84
2023/03/21 10:43:34;;;;;;;15.97;9.17;;;;;;;;;;5093192;28;20212;-85
2023/03/21 10:46:13;;;;;;;14.87;10.37;;;;;;;;;;5094186;28;20242;-84
2023/03/21 10:48:45;;;;;;;10.00;8.43;;;;;;;;;;5093868;28;20231;-84
2023/03/21 10:51:18;;;;;;;11.23;5.70;;;;;;;;;;5093790;28;20292;-85
2023/03/21 10:53:49;;;;;;;13.73;12.03;;;;;;;;;;5093969;28;20283;-84
2023/03/21 10:56:18;;;;;;;6.53;5.77;;;;;;;;;;5093922;28;20259;-84
2023/03/21 10:58:47;;;;;;;12.77;8.63;;;;;;;;;;5093982;28;20275;-84
2023/03/21 11:01:24;;;;;;;12.67;8.30;;;;;;;;;;5094149;28;20242;-84
2023/03/21 11:03:56;;;;;;;12.07;6.13;;;;;;;;;;5094186;28;20209;-85
2023/03/21 11:06:28;;;;;;;8.20;7.37;;;;;;;;;;5093725;28;20221;-85
2023/03/21 11:08:57;;;;;;;10.10;6.70;;;;;;;;;;5093794;28;20193;-84
2023/03/21 11:11:27;;;;;;;8.83;6.67;;;;;;;;;;5093695;28;20262;-84
2023/03/21 11:14:00;;;;;;;9.10;6.20;;;;;;;;;;5093286;28;20241;-85
2023/03/21 11:16:33;;;;;;;6.67;3.97;;;;;;;;;;5093902;28;20478;-85
2023/03/21 11:19:03;;;;;;;7.57;6.60;;;;;;;;;;5093719;28;20208;-84
2023/03/21 11:21:36;;;;;;;10.13;6.63;;;;;;;;;;5093334;28;20447;-84
2023/03/21 11:24:06;;;;;;;5.30;3.90;;;;;;;;;;5093420;28;20261;-84
2023/03/21 11:26:36;;;;;;;7.20;5.67;;;;;;;;;;5091476;28;20213;-85
2023/03/21 11:29:18;;;;;;;12.67;8.40;;;;;;;;;;5093193;28;20250;-84
2023/03/21 11:31:48;;;;;;;12.23;10.00;;;;;;;;;;5093263;28;20224;-84
2023/03/21 11:34:25;;;;;;;9.90;8.23;;;;;;;;;;5095196;28;20216;-83
2023/03/21 11:36:58;;;;;;;9.10;5.87;;;;;;;;;;5073115;28;20205;-83
2023/03/21 11:39:36;;;;;;;7.13;5.97;;;;;;;;;;5081818;28;20236;-84
2023/03/21 11:42:05;;;;;;;7.93;3.80;;;;;;;;;;5092918;28;20201;-84
2023/03/21 11:44:34;;;;;;;7.50;4.33;;;;;;;;;;5092902;28;20205;-83
2023/03/21 11:47:04;;;;;;;7.73;5.10;;;;;;;;;;5092796;28;20224;-80
2023/03/21 11:49:33;;;;;;;6.37;5.67;;;;;;;;;;5093175;28;20212;-80
2023/03/21 11:52:12;;;;;;;11.90;8.33;;;;;;;;;;5092540;28;20213;-81
2023/03/21 11:54:50;;;;;;;7.93;4.87;;;;;;;;;;5092650;28;20459;-84
2023/03/21 11:57:21;;;;;;;12.03;8.47;;;;;;;;;;5092271;28;20204;-84
2023/03/21 11:59:54;;;;;;;9.10;6.80;;;;;;;;;;5092546;28;20209;-83
2023/03/21 12:02:41;;;;;;;10.83;5.83;;;;;;;;;;5092731;28;20205;-84
2023/03/21 12:05:16;;;;;;;12.43;7.03;;;;;;;;;;5089534;28;20224;-84
2023/03/21 12:07:50;;;;;;;6.17;4.67;;;;;;;;;;5089906;28;20239;-83
2023/03/21 12:10:39;;;;;;;4.83;3.40;;;;;;;;;;5086308;28;20208;-84
2023/03/21 12:13:22;;;;;;;4.07;3.17;;;;;;;;;;5088804;28;20243;-86
2023/03/21 12:15:55;;;;;;;7.23;4.30;;;;;;;;;;5090476;28;20292;-84
2023/03/21 12:18:44;;;;;;;4.50;4.03;;;;;;;;;;5092431;28;20212;-84
2023/03/21 12:21:16;;;;;;;5.57;3.10;;;;;;;;;;5091323;28;20206;-85
2023/03/21 12:23:56;;;;;;;8.70;5.60;;;;;;;;;;5079921;28;20206;-84
2023/03/21 12:26:27;;;;;;;4.33;3.93;;;;;;;;;;5089151;28;20200;-84
2023/03/21 12:29:02;;;;;;;7.53;6.20;;;;;;;;;;5092209;28;20197;-84
2023/03/21 12:31:34;;;;;;;5.70;3.97;;;;;;;;;;5092239;28;20220;-82
2023/03/21 12:34:10;;;;;;;2.80;2.60;;;;;;;;;;5091182;28;20209;-82
2023/03/21 12:36:48;;;;;;;6.13;4.10;;;;;;;;;;5091979;28;20197;-81
2023/03/21 12:39:22;;;;;;;5.90;4.63;;;;;;;;;;5092197;28;20292;-80
2023/03/21 12:41:57;;;;;;;8.33;4.50;;;;;;;;;;5091641;28;20238;-83
2023/03/21 12:44:28;;;;;;;5.53;3.70;;;;;;;;;;5091775;28;20250;-83
2023/03/21 12:46:59;;;;;;;10.00;5.77;;;;;;;;;;5092029;28;20378;-84
2023/03/21 12:49:30;;;;;;;10.40;5.83;;;;;;;;;;5092356;28;20470;-85
2023/03/21 12:52:03;;;;;;;10.57;6.63;;;;;;;;;;5088633;28;20290;-84
2023/03/21 12:54:33;;;;;;;6.83;4.87;;;;;;;;;;5084367;28;20229;-85
2023/03/21 12:57:05;;;;;;;8.87;4.63;;;;;;;;;;5090634;28;20287;-85
2023/03/21 12:59:36;;;;;;;9.73;7.67;;;;;;;;;;5091472;28;20211;-85
2023/03/21 13:02:15;;;;;;;6.33;3.90;;;;;;;;;;5092001;28;20208;-86
2023/03/21 13:04:46;;;;;;;12.90;11.43;;;;;;;;;;5093547;28;20204;-85
2023/03/21 13:07:19;;;;;;;5.10;3.80;;;;;;;;;;5095881;28;20197;-85
2023/03/21 13:09:47;;;;;;;4.77;4.37;;;;;;;;;;5096883;28;20212;-86
2023/03/21 13:12:29;;;;;;;9.27;5.77;;;;;;;;;;5095714;28;20228;-87
2023/03/21 13:15:03;;;;;;;7.73;5.73;;;;;;;;;;5075287;28;20226;-85
2023/03/21 13:17:41;;;;;;;9.37;5.73;;;;;;;;;;5092773;28;20208;-85
2023/03/21 13:20:14;;;;;;;6.90;4.43;;;;;;;;;;5095867;28;20200;-86
2023/03/21 13:22:45;;;;;;;7.13;5.40;;;;;;;;;;5096067;28;20203;-86
2023/03/21 13:25:18;;;;;;;4.47;4.00;;;;;;;;;;5095973;28;20205;-86
2023/03/21 13:27:51;;;;;;;8.43;5.57;;;;;;;;;;5095375;28;20209;-88
2023/03/21 13:30:22;;;;;;;6.87;4.57;;;;;;;;;;5087190;28;20209;-87
2023/03/21 13:32:51;;;;;;;13.00;6.90;;;;;;;;;;5075180;28;20282;-87
2023/03/21 13:35:26;;;;;;;5.00;3.50;;;;;;;;;;5090988;28;20316;-87
2023/03/21 13:37:57;;;;;;;6.33;5.07;;;;;;;;;;5088352;28;20204;-87
2023/03/21 13:40:27;;;;;;;4.90;4.30;;;;;;;;;;5095408;28;20240;-87
2023/03/21 13:42:58;;;;;;;5.73;4.37;;;;;;;;;;5095594;28;20189;-88
2023/03/21 13:45:29;;;;;;;6.03;4.60;;;;;;;;;;5095407;28;20279;-84
2023/03/21 13:47:58;;;;;;;8.83;4.83;;;;;;;;;;5075539;28;20198;-85
2023/03/21 13:50:35;;;;;;;8.67;5.07;;;;;;;;;;5098797;28;20213;-83
2023/03/21 13:53:22;;;;;;;4.77;3.43;;;;;;;;;;5100705;28;20308;-83
2023/03/21 13:56:01;;;;;;;7.17;5.37;;;;;;;;;;5095266;28;20209;-84
2023/03/21 13:58:34;;;;;;;11.53;3.37;;;;;;;;;;5095285;28;20209;-84
2023/03/21 14:01:22;;;;;;;12.47;9.67;;;;;;;;;;5095406;28;20292;-83
2023/03/21 14:03:57;;;;;;;11.60;4.77;;;;;;;;;;5095272;28;20193;-83
2023/03/21 14:06:31;;;;;;;13.27;4.67;;;;;;;;;;5095189;28;20225;-82
2023/03/21 14:09:02;;;;;;;5.37;4.87;;;;;;;;;;5095204;28;20207;-83
2023/03/21 14:11:31;;;;;;;5.20;3.93;;;;;;;;;;5094958;28;20213;-83
2023/03/21 14:14:01;;;;;;;10.30;4.00;;;;;;;;;;5094242;28;20264;-83
2023/03/21 14:16:30;;;;;;;3.67;2.67;;;;;;;;;;5094465;28;20260;-84
2023/03/21 14:19:01;;;;;;;3.67;2.73;;;;;;;;;;5094992;28;20216;-83
2023/03/21 14:21:31;;;;;;;8.30;4.57;;;;;;;;;;5094644;28;20201;-82
2023/03/21 14:24:00;;;;;;;7.47;4.97;;;;;;;;;;5094641;28;20207;-83
2023/03/21 14:26:33;;;;;;;5.77;3.93;;;;;;;;;;5094930;28;20210;-83
2023/03/21 14:29:03;;;;;;;9.20;6.10;;;;;;;;;;5095013;28;20279;-83
2023/03/21 14:31:36;;;;;;;10.13;4.87;;;;;;;;;;5084583;28;20204;-83
2023/03/21 14:34:04;;;;;;;8.33;5.13;;;;;;;;;;5085774;28;20307;-81
2023/03/21 14:36:34;;;;;;;6.07;4.33;;;;;;;;;;5093044;28;20193;-83
2023/03/21 14:39:06;;;;;;;3.53;2.63;;;;;;;;;;5093546;28;20212;-83
2023/03/21 14:41:43;;;;;;;9.60;6.67;;;;;;;;;;5094226;28;20219;-82
2023/03/21 14:44:14;;;;;;;6.93;4.50;;;;;;;;;;5089471;28;20216;-83
2023/03/21 14:46:44;;;;;;;8.13;5.27;;;;;;;;;;5087201;28;20200;-82
2023/03/21 14:49:19;;;;;;;6.20;4.77;;;;;;;;;;5083021;28;20197;-82
2023/03/21 14:51:48;;;;;;;7.63;5.67;;;;;;;;;;5088906;28;20224;-82
2023/03/21 14:54:18;;;;;;;10.90;5.90;;;;;;;;;;5091926;28;20278;-82
2023/03/21 14:56:51;;;;;;;19.17;8.83;;;;;;;;;;5090181;28;20205;-82
2023/03/21 14:59:22;;;;;;;6.87;3.53;;;;;;;;;;5106857;28;20300;-82
2023/03/21 15:01:51;;;;;;;7.20;3.13;;;;;;;;;;5102115;28;20264;-83